createdAt,value
2019-04-10T00:00:11.254Z,32.90
2019-04-10T00:02:39.858Z,28.90
2019-04-10T00:05:09.639Z,26.23
2019-04-10T00:07:38.298Z,37.83
2019-04-10T00:10:07.759Z,30.20
2019-04-10T00:12:36.363Z,33.15
2019-04-10T00:15:05.545Z,30.93
2019-04-10T00:17:34.121Z,32.63
2019-04-10T00:20:02.783Z,31.47
2019-04-10T00:22:31.398Z,29.03
2019-04-10T00:25:00.109Z,27.50
2019-04-10T00:27:28.765Z,29.70
2019-04-10T00:29:57.616Z,34.93
2019-04-10T00:32:26.195Z,28.90
2019-04-10T00:34:54.770Z,30.67
2019-04-10T00:37:27.162Z,34.33
2019-04-10T00:39:53.581Z,31.67
2019-04-10T00:42:23.075Z,34.83
2019-04-10T00:44:52.218Z,35.27
2019-04-10T00:47:21.203Z,35.33
2019-04-10T00:49:50.337Z,40.20
2019-04-10T00:52:19.757Z,31.47
2019-04-10T00:54:48.966Z,36.57
2019-04-10T00:57:18.105Z,30.40
2019-04-10T00:59:46.829Z,34.30
2019-04-10T01:02:16.238Z,37.87
2019-04-10T01:04:44.975Z,36.53
2019-04-10T01:07:13.531Z,34.43
2019-04-10T01:09:42.121Z,34.63
2019-04-10T01:12:11.846Z,33.03
2019-04-10T01:14:40.468Z,32.50
2019-04-10T01:17:09.042Z,34.43
2019-04-10T01:19:37.811Z,33.93
2019-04-10T01:22:06.607Z,34.27
2019-04-10T01:24:35.538Z,39.63
2019-04-10T01:27:04.514Z,33.23
2019-04-10T01:29:33.610Z,33.87
2019-04-10T01:32:02.285Z,34.37
2019-04-10T01:34:31.566Z,34.90
2019-04-10T01:37:00.607Z,31.43
2019-04-10T01:39:31.274Z,33.20
2019-04-10T01:42:00.576Z,29.80
2019-04-10T01:44:29.174Z,33.93
2019-04-10T01:46:57.751Z,31.60
2019-04-10T01:49:26.341Z,35.50
2019-04-10T01:51:55.279Z,32.03
2019-04-10T01:54:24.834Z,34.53
2019-04-10T01:56:53.914Z,31.20
2019-04-10T01:59:23.749Z,29.70
2019-04-10T02:01:54.022Z,30.80
2019-04-10T02:04:22.801Z,30.00
2019-04-10T02:06:51.717Z,34.53
2019-04-10T02:09:21.364Z,33.80
2019-04-10T02:11:50.231Z,33.00
2019-04-10T02:14:18.786Z,31.97
2019-04-10T02:16:47.453Z,36.07
2019-04-10T02:19:16.372Z,30.53
2019-04-10T02:21:44.976Z,35.47
2019-04-10T02:24:14.544Z,31.97
2019-04-10T02:26:43.476Z,34.60
2019-04-10T02:29:12.117Z,34.43
2019-04-10T02:31:40.699Z,29.63
2019-04-10T02:34:09.681Z,30.73
2019-04-10T02:36:38.720Z,34.40
2019-04-10T02:39:19.135Z,33.27
2019-04-10T02:41:38.599Z,34.30
2019-04-10T02:44:08.094Z,29.47
2019-04-10T02:46:37.043Z,34.87
2019-04-10T02:49:06.250Z,31.17
2019-04-10T02:51:35.843Z,31.27
2019-04-10T02:54:05.174Z,41.63
2019-04-10T02:56:34.376Z,32.40
2019-04-10T02:59:04.861Z,32.73
2019-04-10T03:01:33.559Z,32.17
2019-04-10T03:04:03.401Z,30.63
2019-04-10T03:06:33.516Z,33.10
2019-04-10T03:09:24.172Z,31.00
2019-04-10T03:11:33.199Z,35.83
2019-04-10T03:14:03.725Z,30.93
2019-04-10T03:16:32.050Z,34.70
2019-04-10T03:19:01.175Z,31.57
2019-04-10T03:21:31.214Z,31.33
2019-04-10T03:24:00.062Z,37.63
2019-04-10T03:26:29.803Z,34.50
2019-04-10T03:28:58.456Z,39.37
2019-04-10T03:31:27.845Z,33.47
2019-04-10T03:34:03.575Z,31.47
2019-04-10T03:36:40.078Z,30.73
2019-04-10T03:39:10.464Z,42.47
2019-04-10T03:41:40.160Z,36.80
2019-04-10T03:44:08.721Z,32.97
2019-04-10T03:46:39.933Z,77.87
2019-04-10T03:49:07.686Z,57.90
2019-04-10T03:51:36.645Z,37.43
2019-04-10T03:54:05.359Z,39.25
2019-04-10T03:56:34.008Z,40.40
2019-04-10T03:59:02.892Z,40.47
2019-04-10T04:01:33.366Z,33.33
2019-04-10T04:04:02.112Z,36.53
2019-04-10T04:06:31.459Z,34.30
2019-04-10T04:09:06.717Z,32.80
2019-04-10T04:11:31.373Z,30.20
2019-04-10T04:13:59.955Z,34.33
2019-04-10T04:16:29.021Z,34.37
2019-04-10T04:18:58.107Z,31.23
2019-04-10T04:21:26.667Z,30.87
2019-04-10T04:23:55.280Z,37.10
2019-04-10T04:26:23.819Z,33.70
2019-04-10T04:28:53.683Z,33.37
2019-04-10T04:31:22.907Z,29.33
2019-04-10T04:33:51.513Z,35.77
2019-04-10T04:36:20.387Z,35.90
2019-04-10T04:38:49.222Z,34.67
2019-04-10T04:41:17.846Z,27.00
2019-04-10T04:43:47.664Z,32.10
2019-04-10T04:46:16.654Z,32.37
2019-04-10T04:48:45.381Z,31.17
2019-04-10T04:51:14.027Z,35.40
2019-04-10T04:53:42.708Z,31.80
2019-04-10T04:56:11.480Z,32.20
2019-04-10T04:58:40.078Z,25.80
2019-04-10T05:01:08.718Z,29.57
2019-04-10T05:03:37.542Z,30.40
2019-04-10T05:06:06.275Z,27.67
2019-04-10T05:08:34.850Z,32.37
2019-04-10T05:11:04.321Z,32.43
2019-04-10T05:13:33.382Z,28.70
2019-04-10T05:16:02.662Z,31.70
2019-04-10T05:18:31.697Z,29.03
2019-04-10T05:21:00.916Z,47.17
2019-04-10T05:23:29.670Z,33.43
2019-04-10T05:25:59.145Z,28.37
2019-04-10T05:28:29.503Z,29.90
2019-04-10T05:30:58.911Z,29.83
2019-04-10T05:33:27.507Z,58.33
2019-04-10T05:35:57.005Z,29.07
2019-04-10T05:38:25.632Z,27.40
2019-04-10T05:40:55.146Z,52.70
2019-04-10T05:43:24.028Z,39.83
2019-04-10T05:45:53.020Z,27.00
2019-04-10T05:48:23.525Z,40.33
2019-04-10T05:50:56.452Z,53.20
2019-04-10T05:53:22.563Z,58.67
2019-04-10T05:55:51.582Z,26.67
2019-04-10T05:58:20.309Z,25.60
2019-04-10T06:00:49.809Z,31.30
2019-04-10T06:03:18.665Z,30.47
2019-04-10T06:05:47.302Z,23.43
2019-04-10T06:08:16.085Z,24.80
2019-04-10T06:10:45.679Z,23.87
2019-04-10T06:13:15.083Z,24.33
2019-04-10T06:15:44.006Z,26.40
2019-04-10T06:18:13.876Z,27.13
2019-04-10T06:20:42.910Z,23.70
2019-04-10T06:23:11.595Z,21.60
2019-04-10T06:25:41.978Z,25.13
2019-04-10T06:28:10.405Z,20.47
2019-04-10T06:30:39.809Z,21.87
2019-04-10T06:33:09.605Z,20.17
2019-04-10T06:35:38.311Z,20.27
2019-04-10T06:38:07.449Z,20.27
2019-04-10T06:40:36.095Z,20.67
2019-04-10T06:43:04.733Z,20.83
2019-04-10T06:45:33.597Z,21.03
2019-04-10T06:48:02.672Z,16.00
2019-04-10T06:50:31.614Z,21.57
2019-04-10T06:53:00.401Z,23.30
2019-04-10T06:55:29.950Z,18.43
2019-04-10T06:57:59.814Z,18.33
2019-04-10T07:00:30.546Z,18.73
2019-04-10T07:02:59.382Z,17.87
2019-04-10T07:05:37.901Z,17.93
2019-04-10T07:08:10.015Z,18.50
2019-04-10T07:10:39.573Z,16.87
2019-04-10T07:12:59.634Z,17.33
2019-04-10T07:15:29.377Z,16.27
2019-04-10T07:17:58.864Z,14.97
2019-04-10T07:20:29.282Z,13.53
2019-04-10T07:22:58.266Z,14.00
2019-04-10T07:25:27.918Z,17.77
2019-04-10T07:27:56.627Z,15.63
2019-04-10T07:30:26.663Z,12.27
2019-04-10T07:32:55.730Z,12.80
2019-04-10T07:35:24.333Z,14.20
2019-04-10T07:37:55.976Z,12.97
2019-04-10T07:40:23.152Z,12.83
2019-04-10T07:42:52.517Z,11.23
2019-04-10T07:45:21.350Z,11.83
2019-04-10T07:47:49.878Z,14.90
2019-04-10T07:50:18.599Z,12.10
2019-04-10T07:52:47.890Z,13.77
2019-04-10T07:55:16.976Z,13.15
2019-04-10T07:57:47.750Z,15.20
2019-04-10T08:00:16.599Z,8.23
2019-04-10T08:02:45.165Z,9.93
2019-04-10T08:05:13.921Z,9.70
2019-04-10T08:07:43.101Z,10.87
2019-04-10T08:10:12.171Z,9.00
2019-04-10T08:12:47.745Z,6.58
2019-04-10T08:15:11.489Z,9.03
2019-04-10T08:17:40.981Z,8.03
2019-04-10T08:20:10.289Z,8.83
2019-04-10T08:22:39.276Z,7.93
2019-04-10T08:25:08.857Z,7.87
2019-04-10T08:27:38.434Z,8.87
2019-04-10T08:30:10.697Z,7.00
2019-04-10T08:32:51.540Z,6.47
2019-04-10T08:35:09.063Z,6.03
2019-04-10T08:37:38.943Z,3.83
2019-04-10T08:40:09.595Z,5.47
2019-04-10T08:42:40.216Z,5.07
2019-04-10T08:45:09.220Z,5.03
2019-04-10T08:47:37.940Z,3.87
2019-04-10T08:50:07.982Z,4.57
2019-04-10T08:52:37.044Z,5.47
2019-04-10T08:55:06.114Z,5.43
2019-04-10T08:57:34.694Z,5.10
2019-04-10T09:00:05.160Z,3.73
2019-04-10T09:02:33.943Z,3.67
2019-04-10T09:05:03.638Z,3.90
2019-04-10T09:07:32.589Z,4.00
2019-04-10T09:10:01.834Z,3.57
2019-04-10T09:12:31.555Z,15.90
2019-04-10T09:15:01.370Z,5.45
2019-04-10T09:17:31.377Z,3.90
2019-04-10T09:20:00.566Z,3.73
2019-04-10T09:22:44.110Z,3.30
2019-04-10T09:25:00.699Z,3.40
2019-04-10T09:27:29.301Z,3.03
2019-04-10T09:29:57.942Z,3.73
2019-04-10T09:32:26.604Z,3.67
2019-04-10T09:34:56.082Z,3.53
2019-04-10T09:37:24.825Z,3.40
2019-04-10T09:39:54.870Z,4.27
2019-04-10T09:42:23.732Z,3.90
2019-04-10T09:44:52.833Z,2.80
2019-04-10T09:47:22.705Z,4.57
2019-04-10T09:49:51.476Z,3.00
2019-04-10T09:52:20.118Z,3.50
2019-04-10T09:54:48.978Z,3.47
2019-04-10T09:57:17.903Z,3.83
2019-04-10T09:59:47.284Z,3.63
2019-04-10T10:02:16.239Z,3.13
2019-04-10T10:04:46.011Z,4.13
2019-04-10T10:07:14.725Z,3.37
2019-04-10T10:09:43.319Z,3.70
2019-04-10T10:12:11.872Z,3.90
2019-04-10T10:14:40.538Z,4.40
2019-04-10T10:17:09.187Z,3.60
2019-04-10T10:19:39.191Z,3.90
2019-04-10T10:22:09.238Z,3.47
2019-04-10T10:24:38.526Z,3.80
2019-04-10T10:27:07.481Z,4.83
2019-04-10T10:29:36.123Z,3.80
2019-04-10T10:32:04.923Z,3.70
2019-04-10T10:34:34.507Z,3.80
2019-04-10T10:37:03.989Z,3.73
2019-04-10T10:39:32.790Z,6.03
2019-04-10T10:42:01.407Z,3.50
2019-04-10T10:44:30.184Z,5.13
2019-04-10T10:46:59.950Z,5.23
2019-04-10T10:49:28.711Z,3.93
2019-04-10T10:51:57.327Z,4.33
2019-04-10T10:54:26.795Z,4.40
2019-04-10T10:56:56.367Z,4.63
2019-04-10T10:59:25.230Z,7.63
2019-04-10T11:01:53.961Z,4.37
2019-04-10T11:04:23.244Z,4.93
2019-04-10T11:09:22.245Z,5.23
2019-04-10T11:11:50.874Z,5.23
2019-04-10T11:14:19.528Z,4.47
2019-04-10T11:16:49.454Z,5.43
2019-04-10T11:19:19.727Z,5.83
2019-04-10T11:21:49.631Z,4.63
2019-04-10T11:24:19.489Z,4.83
2019-04-10T11:26:50.203Z,4.77
2019-04-10T11:29:19.365Z,5.57
2019-04-10T11:31:49.243Z,4.90
2019-04-10T11:34:18.114Z,4.87
2019-04-10T11:36:48.257Z,6.13
2019-04-10T11:39:23.346Z,5.47
2019-04-10T11:41:49.092Z,4.73
2019-04-10T11:44:20.336Z,7.03
2019-04-10T11:46:49.395Z,5.27
2019-04-10T11:49:20.201Z,5.00
2019-04-10T11:51:50.285Z,5.20
2019-04-10T11:54:23.690Z,6.20
2019-04-10T11:56:50.958Z,6.03
2019-04-10T11:59:23.048Z,5.30
2019-04-10T12:01:52.981Z,6.22
2019-04-10T12:04:20.127Z,5.60
2019-04-10T12:06:51.921Z,6.73
2019-04-10T12:10:16.852Z,6.33
2019-04-10T12:11:49.667Z,6.93
2019-04-10T12:14:19.346Z,4.97
2019-04-10T12:16:49.399Z,6.20
2019-04-10T12:19:19.267Z,5.17
2019-04-10T12:21:48.718Z,8.60
2019-04-10T12:24:18.289Z,6.07
2019-04-10T12:26:47.825Z,14.73
2019-04-10T12:29:16.368Z,8.80
2019-04-10T12:31:45.053Z,19.63
2019-04-10T12:34:14.932Z,6.93
2019-04-10T12:36:44.815Z,30.30
2019-04-10T12:39:14.133Z,7.67
2019-04-10T12:41:43.585Z,6.27
2019-04-10T12:44:12.216Z,5.17
2019-04-10T12:46:41.513Z,6.50
2019-04-10T12:49:10.176Z,17.03
2019-04-10T12:51:38.754Z,8.63
2019-04-10T12:54:07.939Z,6.33
2019-04-10T12:56:36.594Z,5.00
2019-04-10T12:59:05.323Z,5.73
2019-04-10T13:01:33.871Z,5.10
2019-04-10T13:04:03.414Z,6.50
2019-04-10T13:06:32.027Z,5.10
2019-04-10T13:09:07.760Z,144.40
2019-04-10T13:11:30.927Z,39.10
2019-04-10T13:14:00.105Z,19.73
2019-04-10T13:16:28.840Z,5.50
2019-04-10T13:18:57.999Z,4.67
2019-04-10T13:21:26.632Z,18.80
2019-04-10T13:23:55.261Z,11.17
2019-04-10T13:26:24.306Z,6.47
2019-04-10T13:28:53.916Z,5.53
2019-04-10T13:31:23.460Z,4.90
2019-04-10T13:33:53.042Z,4.90
2019-04-10T13:36:22.099Z,5.83
2019-04-10T13:38:50.825Z,4.80
2019-04-10T13:41:19.374Z,4.60
2019-04-10T13:43:49.830Z,8.47
2019-04-10T13:46:18.575Z,6.13
2019-04-10T13:48:47.419Z,6.43
2019-04-10T13:51:16.079Z,5.55
2019-04-10T13:53:44.646Z,6.77
2019-04-10T13:56:13.365Z,4.67
2019-04-10T13:58:42.606Z,6.10
2019-04-10T14:01:13.377Z,4.47
2019-04-10T14:03:43.826Z,5.23
2019-04-10T14:06:13.598Z,6.40
2019-04-10T14:09:03.437Z,12.23
2019-04-10T14:11:13.236Z,5.50
2019-04-10T14:13:42.136Z,11.20
2019-04-10T14:16:10.842Z,5.03
2019-04-10T14:18:39.408Z,3.87
2019-04-10T14:21:12.917Z,7.10
2019-04-10T14:23:39.530Z,8.50
2019-04-10T14:26:19.068Z,11.50
2019-04-10T14:28:49.158Z,3.77
2019-04-10T14:31:20.166Z,4.70
2019-04-10T14:33:48.958Z,6.33
2019-04-10T14:36:18.001Z,4.47
2019-04-10T14:38:47.404Z,4.17
2019-04-10T14:41:16.366Z,3.87
2019-04-10T14:43:45.647Z,4.03
2019-04-10T14:46:15.283Z,6.67
2019-04-10T14:48:44.680Z,4.27
2019-04-10T14:51:14.481Z,4.10
2019-04-10T14:53:43.578Z,3.80
2019-04-10T14:56:13.628Z,5.17
2019-04-10T14:58:42.412Z,3.70
2019-04-10T15:01:11.542Z,4.30
2019-04-10T15:03:40.425Z,6.07
2019-04-10T15:06:09.491Z,3.93
2019-04-10T15:08:38.116Z,3.40
2019-04-10T15:11:06.784Z,4.20
2019-04-10T15:13:36.134Z,3.53
2019-04-10T15:16:05.076Z,4.07
2019-04-10T15:18:33.624Z,4.50
2019-04-10T15:21:02.841Z,4.97
2019-04-10T15:23:31.712Z,5.23
2019-04-10T15:26:01.765Z,3.73
2019-04-10T15:28:30.410Z,3.20
2019-04-10T15:30:59.998Z,3.70
2019-04-10T15:33:28.962Z,7.13
2019-04-10T15:35:57.656Z,6.50
2019-04-10T15:38:27.093Z,4.20
2019-04-10T15:40:56.772Z,4.17
2019-04-10T15:43:26.426Z,5.42
2019-04-10T15:45:56.723Z,4.23
2019-04-10T15:48:25.552Z,4.53
2019-04-10T15:50:54.190Z,4.23
2019-04-10T15:53:22.767Z,10.57
2019-04-10T15:55:51.666Z,4.17
2019-04-10T15:58:21.422Z,4.03
2019-04-10T16:00:50.403Z,4.70
2019-04-10T16:03:19.544Z,4.13
2019-04-10T16:05:48.155Z,7.53
2019-04-10T16:08:18.382Z,4.30
2019-04-10T16:10:55.147Z,5.00
2019-04-10T16:13:31.122Z,4.57
2019-04-10T16:16:02.813Z,4.83
2019-04-10T16:18:32.557Z,5.20
2019-04-10T16:21:02.111Z,4.80
2019-04-10T16:23:42.099Z,5.20
2019-04-10T16:26:11.194Z,4.70
2019-04-10T16:28:39.770Z,5.97
2019-04-10T16:31:08.362Z,6.77
2019-04-10T16:33:36.919Z,5.00
2019-04-10T16:36:05.606Z,5.50
2019-04-10T16:38:34.173Z,5.33
2019-04-10T16:41:02.886Z,5.07
2019-04-10T16:43:32.633Z,7.13
2019-04-10T16:46:02.733Z,6.73
2019-04-10T16:48:31.572Z,6.37
2019-04-10T16:51:00.208Z,5.57
2019-04-10T16:53:29.837Z,7.63
2019-04-10T16:55:59.023Z,7.37
2019-04-10T16:58:27.714Z,4.00
2019-04-10T17:00:56.306Z,5.30
2019-04-10T17:03:25.424Z,4.43
2019-04-10T17:05:53.912Z,5.10
2019-04-10T17:08:23.756Z,4.87
2019-04-10T17:10:52.556Z,5.23
2019-04-10T17:13:22.471Z,4.53
2019-04-10T17:15:51.758Z,6.20
2019-04-10T17:18:21.273Z,4.47
2019-04-10T17:20:50.997Z,4.17
2019-04-10T17:23:20.553Z,4.33
2019-04-10T17:25:49.235Z,4.60
2019-04-10T17:28:18.529Z,10.20
2019-04-10T17:30:47.242Z,5.20
2019-04-10T17:33:16.597Z,5.87
2019-04-10T17:35:45.724Z,5.53
2019-04-10T17:38:14.448Z,5.67
2019-04-10T17:40:50.192Z,6.37
2019-04-10T17:43:13.668Z,6.40
2019-04-10T17:45:42.772Z,5.47
2019-04-10T17:48:11.783Z,5.37
2019-04-10T17:50:41.432Z,5.90
2019-04-10T17:53:11.429Z,5.20
2019-04-10T17:55:40.170Z,6.23
2019-04-10T17:58:09.600Z,5.10
2019-04-10T18:00:43.395Z,5.57
2019-04-10T18:03:14.061Z,5.37
2019-04-10T18:05:42.586Z,6.47
2019-04-10T18:08:12.399Z,4.80
2019-04-10T18:10:48.704Z,5.90
2019-04-10T18:13:11.633Z,8.53
2019-04-10T18:15:40.315Z,5.40
2019-04-10T18:18:09.237Z,5.73
2019-04-10T18:20:37.963Z,5.53
2019-04-10T18:23:07.152Z,6.87
2019-04-10T18:25:36.231Z,5.30
2019-04-10T18:28:05.489Z,6.80
2019-04-10T18:30:35.528Z,4.97
2019-04-10T18:33:06.726Z,5.30
2019-04-10T18:35:35.416Z,5.23
2019-04-10T18:38:05.500Z,6.97
2019-04-10T18:40:35.090Z,6.57
2019-04-10T18:43:04.348Z,5.77
2019-04-10T18:45:33.628Z,8.27
2019-04-10T18:48:02.770Z,6.40
2019-04-10T18:50:32.162Z,7.77
2019-04-10T18:53:01.578Z,8.23
2019-04-10T18:55:30.512Z,6.60
2019-04-10T18:57:59.439Z,5.40
2019-04-10T19:00:36.495Z,5.70
2019-04-10T19:03:07.876Z,6.30
2019-04-10T19:05:40.186Z,6.17
2019-04-10T19:08:11.663Z,6.57
2019-04-10T19:10:40.172Z,5.67
2019-04-10T19:13:09.562Z,5.80
2019-04-10T19:15:40.511Z,6.20
2019-04-10T19:18:13.277Z,7.00
2019-04-10T19:20:42.915Z,6.03
2019-04-10T19:23:13.092Z,6.00
2019-04-10T19:25:43.376Z,5.83
2019-04-10T19:28:12.885Z,6.13
2019-04-10T19:30:47.608Z,6.23
2019-04-10T19:33:18.274Z,8.00
2019-04-10T19:35:47.607Z,6.63
2019-04-10T19:38:17.024Z,6.23
2019-04-10T19:40:46.298Z,6.70
2019-04-10T19:43:15.953Z,6.00
2019-04-10T19:45:44.839Z,7.63
2019-04-10T19:48:15.013Z,6.57
2019-04-10T19:50:43.978Z,5.93
2019-04-10T19:53:13.060Z,7.47
2019-04-10T19:55:42.116Z,6.77
2019-04-10T19:58:10.941Z,9.03
2019-04-10T20:00:40.956Z,9.10
2019-04-10T20:03:11.077Z,7.00
2019-04-10T20:05:39.806Z,6.57
2019-04-10T20:08:09.291Z,7.10
2019-04-10T20:10:38.766Z,8.33
2019-04-10T20:13:07.428Z,6.60
2019-04-10T20:15:36.314Z,6.70
2019-04-10T20:18:05.280Z,7.83
2019-04-10T20:20:35.346Z,7.63
2019-04-10T20:23:04.653Z,6.77
2019-04-10T20:25:34.482Z,7.03
2019-04-10T20:28:03.102Z,6.30
2019-04-10T20:30:33.150Z,6.93
2019-04-10T20:33:02.871Z,7.60
2019-04-10T20:35:32.053Z,8.50
2019-04-10T20:38:01.058Z,7.50
2019-04-10T20:40:29.879Z,8.77
2019-04-10T20:42:58.492Z,8.67
2019-04-10T20:45:27.543Z,6.90
2019-04-10T20:47:56.201Z,7.17
2019-04-10T20:50:25.910Z,7.93
2019-04-10T20:52:55.714Z,9.87
2019-04-10T20:55:24.370Z,7.40
2019-04-10T20:57:54.109Z,7.97
2019-04-10T21:00:30.858Z,7.23
2019-04-10T21:03:00.612Z,8.60
2019-04-10T21:05:29.583Z,8.33
2019-04-10T21:07:58.146Z,10.82
2019-04-10T21:10:26.649Z,7.57
2019-04-10T21:12:55.206Z,7.17
2019-04-10T21:15:23.777Z,7.77
2019-04-10T21:17:52.903Z,10.67
2019-04-10T21:20:22.506Z,8.07
2019-04-10T21:22:51.463Z,8.70
2019-04-10T21:25:21.075Z,9.20
2019-04-10T21:27:51.922Z,8.80
2019-04-10T21:30:37.177Z,7.87
2019-04-10T21:33:07.948Z,7.77
2019-04-10T21:35:38.165Z,7.17
2019-04-10T21:38:06.867Z,8.43
2019-04-10T21:40:35.514Z,8.03
2019-04-10T21:43:04.185Z,10.03
2019-04-10T21:45:34.995Z,9.00
2019-04-10T21:48:03.804Z,7.27
2019-04-10T21:50:33.323Z,9.60
2019-04-10T21:53:01.902Z,8.20
2019-04-10T21:55:31.122Z,10.43
2019-04-10T21:57:59.790Z,11.23
2019-04-10T22:00:46.830Z,15.93
2019-04-10T22:03:16.772Z,13.87
2019-04-10T22:05:46.986Z,16.87
2019-04-10T22:08:17.191Z,20.37
2019-04-10T22:10:48.226Z,15.90
2019-04-10T22:13:16.867Z,14.43
2019-04-10T22:15:47.098Z,13.17
2019-04-10T22:18:16.862Z,12.00
2019-04-10T22:20:45.830Z,13.87
2019-04-10T22:23:14.462Z,17.10
2019-04-10T22:25:43.762Z,15.37
2019-04-10T22:28:12.693Z,15.93
2019-04-10T22:30:41.571Z,25.80
2019-04-10T22:33:10.265Z,31.53
2019-04-10T22:35:39.874Z,27.60
2019-04-10T22:38:08.999Z,26.73
2019-04-10T22:40:37.893Z,75.30
2019-04-10T22:43:07.500Z,31.00
2019-04-10T22:45:36.534Z,59.37
2019-04-10T22:48:06.263Z,66.07
2019-04-10T22:50:35.059Z,39.33
2019-04-10T22:53:04.671Z,32.67
2019-04-10T22:55:33.795Z,34.03
2019-04-10T22:58:02.653Z,24.30
2019-04-10T23:00:32.647Z,37.13
2019-04-10T23:03:02.931Z,28.67
2019-04-10T23:05:32.451Z,18.27
2019-04-10T23:08:01.270Z,29.10
2019-04-10T23:10:29.948Z,24.97
2019-04-10T23:13:03.066Z,22.23
2019-04-10T23:15:28.890Z,25.50
2019-04-10T23:17:57.597Z,17.70
2019-04-10T23:20:26.198Z,26.53
2019-04-10T23:22:54.902Z,40.13
2019-04-10T23:25:24.551Z,38.77
2019-04-10T23:27:55.920Z,25.20
2019-04-10T23:30:24.652Z,16.63
2019-04-10T23:32:53.505Z,14.67
2019-04-10T23:35:22.214Z,27.20
2019-04-10T23:37:51.270Z,16.63
2019-04-10T23:40:21.036Z,15.83
2019-04-10T23:43:01.209Z,20.23
2019-04-10T23:45:20.026Z,13.00
2019-04-10T23:47:48.796Z,14.80
2019-04-10T23:50:18.464Z,11.70
2019-04-10T23:52:47.933Z,22.27
2019-04-10T23:55:17.661Z,19.87
2019-04-10T23:57:46.643Z,28.10
